createdAt,value
2023-05-19T00:01:21.028Z,90.71
2023-05-19T00:03:54.099Z,90.66
2023-05-19T00:06:26.081Z,90.67
2023-05-19T00:08:57.811Z,90.94
2023-05-19T00:11:25.636Z,91.13
2023-05-19T00:13:53.487Z,90.93
2023-05-19T00:16:21.076Z,90.95
2023-05-19T00:18:48.554Z,91.14
2023-05-19T00:21:17.532Z,91.59
2023-05-19T00:23:44.638Z,91.51
2023-05-19T00:26:12.011Z,91.74
2023-05-19T00:28:39.387Z,92.97
2023-05-19T00:31:06.925Z,93.12
2023-05-19T00:33:34.583Z,93.41
2023-05-19T00:36:02.403Z,93.56
2023-05-19T00:38:31.908Z,93.52
2023-05-19T00:41:00.205Z,93.47
2023-05-19T00:43:28.091Z,93.95
2023-05-19T00:45:55.767Z,94.27
2023-05-19T00:48:23.093Z,94.72
2023-05-19T00:50:51.296Z,95.08
2023-05-19T00:53:18.883Z,95.14
2023-05-19T00:55:48.153Z,95.23
2023-05-19T00:58:16.521Z,94.70
2023-05-19T01:00:43.508Z,94.81
2023-05-19T01:03:11.333Z,94.70
2023-05-19T01:05:39.977Z,95.06
2023-05-19T01:08:07.292Z,94.40
2023-05-19T01:10:34.627Z,94.97
2023-05-19T01:13:05.384Z,94.28
2023-05-19T01:15:39.324Z,94.09
2023-05-19T01:18:14.109Z,94.42
2023-05-19T01:20:47.459Z,94.40
2023-05-19T01:23:41.730Z,94.80
2023-05-19T01:26:44.327Z,94.44
2023-05-19T01:29:29.340Z,94.88
2023-05-19T01:32:00.726Z,94.58
2023-05-19T01:34:28.003Z,94.33
2023-05-19T01:36:56.445Z,93.96
2023-05-19T01:39:25.818Z,93.66
2023-05-19T01:41:54.127Z,93.60
2023-05-19T01:44:22.975Z,93.95
2023-05-19T01:46:50.386Z,94.02
2023-05-19T01:49:19.318Z,93.40
2023-05-19T01:51:46.633Z,93.03
2023-05-19T01:54:14.079Z,92.30
2023-05-19T01:56:48.387Z,91.70
2023-05-19T01:59:29.659Z,91.42
2023-05-19T02:02:01.213Z,91.19
2023-05-19T02:04:43.140Z,91.53
2023-05-19T02:07:16.050Z,91.86
2023-05-19T02:09:53.679Z,91.78
2023-05-19T02:12:26.274Z,91.56
2023-05-19T02:15:03.988Z,91.00
2023-05-19T02:17:33.588Z,91.52
2023-05-19T02:20:02.808Z,91.65
2023-05-19T02:22:29.737Z,92.00
2023-05-19T02:24:57.380Z,91.78
2023-05-19T02:27:25.111Z,91.96
2023-05-19T02:29:52.934Z,92.04
2023-05-19T02:32:21.745Z,92.61
2023-05-19T02:34:50.751Z,92.94
2023-05-19T02:37:20.310Z,93.06
2023-05-19T02:39:48.004Z,93.14
2023-05-19T02:42:15.275Z,93.02
2023-05-19T02:44:42.655Z,93.46
2023-05-19T02:47:10.547Z,93.71
2023-05-19T02:49:38.194Z,93.99
2023-05-19T02:52:06.867Z,94.81
2023-05-19T02:54:35.961Z,94.29
2023-05-19T02:57:03.316Z,94.15
2023-05-19T02:59:30.733Z,93.21
2023-05-19T03:02:00.666Z,92.42
2023-05-19T03:04:28.687Z,93.70
2023-05-19T03:06:56.548Z,93.05
2023-05-19T03:09:23.406Z,93.55
2023-05-19T03:11:52.995Z,94.07
2023-05-19T03:14:20.866Z,94.42
2023-05-19T03:16:48.377Z,94.49
2023-05-19T03:19:15.694Z,94.75
2023-05-19T03:21:43.535Z,94.81
2023-05-19T03:24:10.626Z,95.67
2023-05-19T03:26:37.483Z,95.66
2023-05-19T03:29:06.567Z,95.86
2023-05-19T03:31:33.341Z,95.93
2023-05-19T03:34:02.763Z,96.33
2023-05-19T03:36:30.085Z,96.28
2023-05-19T03:38:57.370Z,95.63
2023-05-19T03:41:24.228Z,95.72
2023-05-19T03:43:51.679Z,96.04
2023-05-19T03:46:21.315Z,95.82
2023-05-19T03:48:48.907Z,95.66
2023-05-19T03:51:16.898Z,95.36
2023-05-19T03:53:44.342Z,94.18
2023-05-19T03:56:12.112Z,92.56
2023-05-19T03:58:40.180Z,92.47
2023-05-19T04:01:07.705Z,93.48
2023-05-19T04:03:36.917Z,92.58
2023-05-19T04:06:04.650Z,92.72
2023-05-19T04:08:31.960Z,93.93
2023-05-19T04:10:59.198Z,95.01
2023-05-19T04:13:26.477Z,95.13
2023-05-19T04:15:54.062Z,94.16
2023-05-19T04:18:21.256Z,94.28
2023-05-19T04:20:50.724Z,94.49
2023-05-19T04:23:17.916Z,95.12
2023-05-19T04:25:44.743Z,95.68
2023-05-19T04:28:11.808Z,96.85
2023-05-19T04:30:38.682Z,97.04
2023-05-19T04:33:05.953Z,96.39
2023-05-19T04:35:34.002Z,96.56
2023-05-19T04:38:02.522Z,97.03
2023-05-19T04:40:29.754Z,97.75
2023-05-19T04:42:57.119Z,97.50
2023-05-19T04:45:24.670Z,96.91
2023-05-19T04:47:52.053Z,95.82
2023-05-19T04:50:18.835Z,95.68
2023-05-19T04:52:46.427Z,96.54
2023-05-19T04:55:15.699Z,96.04
2023-05-19T04:57:43.463Z,96.17
2023-05-19T05:00:11.931Z,96.39
2023-05-19T05:02:39.617Z,96.91
2023-05-19T05:05:08.402Z,97.19
2023-05-19T05:07:35.972Z,97.15
2023-05-19T05:10:03.562Z,96.87
2023-05-19T05:12:33.608Z,95.49
2023-05-19T05:15:02.048Z,95.23
2023-05-19T05:17:30.299Z,95.54
2023-05-19T05:19:58.225Z,96.56
2023-05-19T05:22:25.832Z,96.89
2023-05-19T05:24:54.004Z,96.08
2023-05-19T05:27:21.136Z,96.36
2023-05-19T05:29:51.634Z,96.59
2023-05-19T05:32:19.185Z,97.13
2023-05-19T05:34:47.226Z,96.59
2023-05-19T05:37:16.032Z,96.12
2023-05-19T05:39:43.489Z,96.79
2023-05-19T05:42:11.262Z,97.22
2023-05-19T05:44:38.434Z,97.51
2023-05-19T05:47:08.761Z,97.06
2023-05-19T05:49:36.931Z,96.81
2023-05-19T05:52:06.779Z,97.66
2023-05-19T05:54:35.828Z,97.35
2023-05-19T05:57:03.720Z,96.87
2023-05-19T05:59:30.482Z,97.42
2023-05-19T06:01:58.152Z,98.59
2023-05-19T06:04:26.699Z,98.05
2023-05-19T06:06:54.582Z,97.12
2023-05-19T06:09:21.971Z,96.86
2023-05-19T06:11:49.161Z,96.76
2023-05-19T06:14:16.461Z,96.79
2023-05-19T06:16:43.738Z,96.74
2023-05-19T06:19:11.505Z,96.00
2023-05-19T06:21:40.836Z,95.75
2023-05-19T06:24:08.441Z,95.13
2023-05-19T06:26:35.824Z,95.43
2023-05-19T06:29:03.357Z,95.85
2023-05-19T06:31:30.181Z,96.01
2023-05-19T06:33:57.529Z,97.31
2023-05-19T06:36:25.195Z,99.03
2023-05-19T06:38:54.430Z,100.00
2023-05-19T06:41:21.640Z,100.00
2023-05-19T06:43:48.981Z,100.00
2023-05-19T06:46:16.314Z,100.00
2023-05-19T06:48:43.595Z,98.51
2023-05-19T06:51:10.863Z,97.15
2023-05-19T06:53:38.570Z,98.69
2023-05-19T06:56:08.332Z,98.55
2023-05-19T06:58:35.523Z,98.40
2023-05-19T07:01:02.827Z,99.53
2023-05-19T07:03:30.076Z,100.00
2023-05-19T07:05:57.346Z,100.00
2023-05-19T07:08:24.127Z,100.00
2023-05-19T07:10:51.684Z,100.00
2023-05-19T07:13:20.780Z,100.00
2023-05-19T07:15:48.416Z,100.00
2023-05-19T07:18:15.736Z,100.00
2023-05-19T07:20:42.932Z,100.00
2023-05-19T07:23:10.239Z,100.00
2023-05-19T07:25:37.527Z,100.00
2023-05-19T07:28:05.018Z,100.00
2023-05-19T07:30:34.830Z,100.00
2023-05-19T07:33:02.483Z,100.00
2023-05-19T07:35:29.904Z,100.00
2023-05-19T07:37:57.202Z,100.00
2023-05-19T07:40:23.928Z,100.00
2023-05-19T07:42:50.762Z,100.00
2023-05-19T07:45:17.611Z,100.00
2023-05-19T07:47:45.935Z,100.00
2023-05-19T07:50:12.726Z,100.00
2023-05-19T07:52:39.953Z,100.00
2023-05-19T07:55:07.239Z,100.00
2023-05-19T07:57:34.017Z,100.00
2023-05-19T08:00:00.900Z,100.00
2023-05-19T08:02:27.783Z,100.00
2023-05-19T08:04:56.189Z,100.00
2023-05-19T08:07:22.997Z,100.00
2023-05-19T08:09:49.818Z,100.00
2023-05-19T08:12:16.795Z,100.00
2023-05-19T08:14:43.839Z,100.00
2023-05-19T08:17:10.858Z,100.00
2023-05-19T08:19:37.886Z,100.00
2023-05-19T08:22:06.202Z,100.00
2023-05-19T08:24:33.001Z,100.00
2023-05-19T08:27:00.360Z,100.00
2023-05-19T08:29:27.137Z,100.00
2023-05-19T08:31:54.034Z,100.00
2023-05-19T08:34:20.959Z,100.00
2023-05-19T08:36:48.093Z,100.00
2023-05-19T08:39:16.437Z,100.00
2023-05-19T08:41:43.920Z,100.00
2023-05-19T08:44:10.748Z,100.00
2023-05-19T08:46:37.759Z,100.00
2023-05-19T08:49:11.547Z,100.00
2023-05-19T08:51:46.058Z,100.00
2023-05-19T08:54:16.432Z,100.00
2023-05-19T08:56:44.135Z,100.00
2023-05-19T08:59:12.200Z,100.00
2023-05-19T09:01:40.254Z,100.00
2023-05-19T09:04:07.260Z,100.00
2023-05-19T09:06:34.065Z,100.00
2023-05-19T09:09:01.010Z,100.00
2023-05-19T09:11:29.707Z,100.00
2023-05-19T09:13:56.742Z,100.00
2023-05-19T09:16:23.836Z,100.00
2023-05-19T09:18:54.563Z,100.00
2023-05-19T09:21:26.805Z,100.00
2023-05-19T09:23:54.620Z,100.00
2023-05-19T09:26:22.079Z,100.00
2023-05-19T09:28:50.560Z,100.00
2023-05-19T09:31:17.442Z,100.00
2023-05-19T09:33:45.781Z,100.00
2023-05-19T09:36:13.856Z,100.00
2023-05-19T09:38:40.837Z,100.00
2023-05-19T09:41:08.293Z,100.00
2023-05-19T09:43:36.157Z,100.00
2023-05-19T09:46:06.649Z,100.00
2023-05-19T09:48:33.846Z,100.00
2023-05-19T09:51:01.464Z,100.00
2023-05-19T09:53:30.183Z,100.00
2023-05-19T09:55:58.003Z,100.00
2023-05-19T09:58:25.775Z,100.00
2023-05-19T10:00:53.890Z,100.00
2023-05-19T10:03:29.894Z,100.00
2023-05-19T10:05:57.725Z,100.00
2023-05-19T10:08:28.252Z,100.00
2023-05-19T10:10:56.124Z,100.00
2023-05-19T10:13:24.393Z,100.00
2023-05-19T10:15:59.054Z,100.00
2023-05-19T10:18:28.260Z,100.00
2023-05-19T10:20:57.150Z,100.00
2023-05-19T10:23:23.929Z,100.00
2023-05-19T10:25:52.468Z,100.00
2023-05-19T10:28:23.040Z,100.00
2023-05-19T10:30:54.034Z,100.00
2023-05-19T10:33:26.358Z,100.00
2023-05-19T10:36:24.165Z,100.00
2023-05-19T10:38:56.613Z,100.00
2023-05-19T10:41:28.798Z,100.00
2023-05-19T10:44:08.871Z,100.00
2023-05-19T10:46:35.843Z,100.00
2023-05-19T10:49:03.028Z,100.00
2023-05-19T10:51:32.737Z,100.00
2023-05-19T10:54:03.462Z,100.00
2023-05-19T10:56:32.069Z,100.00
2023-05-19T10:58:59.205Z,100.00
2023-05-19T11:01:32.573Z,100.00
2023-05-19T11:04:05.760Z,100.00
2023-05-19T11:06:35.250Z,100.00
2023-05-19T11:09:12.450Z,100.00
2023-05-19T11:11:47.558Z,100.00
2023-05-19T11:14:17.691Z,100.00
2023-05-19T11:16:50.370Z,100.00
2023-05-19T11:19:28.332Z,100.00
2023-05-19T11:22:07.458Z,100.00
2023-05-19T11:24:36.859Z,100.00
2023-05-19T11:27:25.678Z,100.00
2023-05-19T11:29:53.114Z,100.00
2023-05-19T11:32:21.498Z,100.00
2023-05-19T11:34:49.429Z,100.00
2023-05-19T11:37:18.179Z,98.40
2023-05-19T11:39:47.035Z,99.29
2023-05-19T11:42:14.104Z,100.00
2023-05-19T11:44:41.071Z,99.75
2023-05-19T11:47:08.673Z,99.80
2023-05-19T11:49:36.647Z,96.11
2023-05-19T11:52:05.172Z,91.96
2023-05-19T11:54:34.759Z,92.96
2023-05-19T11:57:03.127Z,94.21
2023-05-19T11:59:32.750Z,95.30
2023-05-19T12:02:16.744Z,94.28
2023-05-19T12:04:44.503Z,92.85
2023-05-19T12:07:11.780Z,84.12
2023-05-19T12:09:40.964Z,82.85
2023-05-19T12:12:08.416Z,86.13
2023-05-19T12:14:35.542Z,87.21
2023-05-19T12:17:10.744Z,88.11
2023-05-19T12:19:38.334Z,84.34
2023-05-19T12:22:07.284Z,83.64
2023-05-19T12:24:34.675Z,78.24
2023-05-19T12:27:17.700Z,70.45
2023-05-19T12:29:50.336Z,70.39
2023-05-19T12:32:18.543Z,74.73
2023-05-19T12:34:46.019Z,75.10
2023-05-19T12:37:13.122Z,73.35
2023-05-19T12:39:40.113Z,75.27
2023-05-19T12:42:09.375Z,78.85
2023-05-19T12:44:39.146Z,85.54
2023-05-19T12:47:06.821Z,84.94
2023-05-19T12:49:34.385Z,89.68
2023-05-19T12:52:03.339Z,89.75
2023-05-19T12:54:33.913Z,93.73
2023-05-19T12:57:01.445Z,94.74
2023-05-19T12:59:38.309Z,98.09
2023-05-19T13:02:08.756Z,99.35
2023-05-19T13:04:36.589Z,100.00
2023-05-19T13:07:03.712Z,100.00
2023-05-19T13:09:31.383Z,100.00
2023-05-19T13:11:59.738Z,100.00
2023-05-19T13:14:27.072Z,100.00
2023-05-19T13:16:54.853Z,100.00
2023-05-19T13:19:25.994Z,100.00
2023-05-19T13:21:53.398Z,100.00
2023-05-19T13:24:20.692Z,98.85
2023-05-19T13:26:48.015Z,100.00
2023-05-19T13:29:16.405Z,100.00
2023-05-19T13:31:43.553Z,97.33
2023-05-19T13:34:10.625Z,98.00
2023-05-19T13:36:39.385Z,97.24
2023-05-19T13:39:06.151Z,99.48
2023-05-19T13:41:32.857Z,98.01
2023-05-19T13:44:02.343Z,95.89
2023-05-19T13:46:40.867Z,94.19
2023-05-19T13:49:12.324Z,96.80
2023-05-19T13:51:43.327Z,95.59
2023-05-19T13:54:10.484Z,98.12
2023-05-19T13:56:38.396Z,94.56
2023-05-19T13:59:06.058Z,91.36
2023-05-19T14:01:33.716Z,92.23
2023-05-19T14:04:01.992Z,94.28
2023-05-19T14:06:29.190Z,91.99
2023-05-19T14:08:58.085Z,93.09
2023-05-19T14:11:25.395Z,86.78
2023-05-19T14:13:53.266Z,89.68
2023-05-19T14:16:20.704Z,87.99
2023-05-19T14:18:48.046Z,86.50
2023-05-19T14:21:15.252Z,88.34
2023-05-19T14:23:42.096Z,87.23
2023-05-19T14:26:10.802Z,88.72
2023-05-19T14:28:37.715Z,85.09
2023-05-19T14:31:04.874Z,87.04
2023-05-19T14:33:35.009Z,86.66
2023-05-19T14:36:02.371Z,84.37
2023-05-19T14:38:29.900Z,81.06
2023-05-19T14:40:57.094Z,85.62
2023-05-19T14:43:25.649Z,82.12
2023-05-19T14:45:53.444Z,80.42
2023-05-19T14:48:20.251Z,81.18
2023-05-19T14:50:47.533Z,83.77
2023-05-19T14:53:14.347Z,83.54
2023-05-19T14:55:41.365Z,84.80
2023-05-19T14:58:23.580Z,82.49
2023-05-19T15:00:57.824Z,81.76
2023-05-19T15:03:24.678Z,83.36
2023-05-19T15:05:51.506Z,80.79
2023-05-19T15:08:18.457Z,81.37
2023-05-19T15:10:49.252Z,79.71
2023-05-19T15:13:16.498Z,77.00
2023-05-19T15:15:43.870Z,80.50
2023-05-19T15:18:13.639Z,82.79
2023-05-19T15:20:41.402Z,84.50
2023-05-19T15:23:08.830Z,84.59
2023-05-19T15:25:35.663Z,85.30
2023-05-19T15:28:02.433Z,85.97
2023-05-19T15:30:29.585Z,87.57
2023-05-19T15:32:56.351Z,89.84
2023-05-19T15:35:24.589Z,87.54
2023-05-19T15:37:51.553Z,85.40
2023-05-19T15:40:18.550Z,86.36
2023-05-19T15:42:45.686Z,85.27
2023-05-19T15:45:12.600Z,87.87
2023-05-19T15:47:39.347Z,89.21
2023-05-19T15:50:07.436Z,88.77
2023-05-19T15:52:35.529Z,90.73
2023-05-19T15:55:02.191Z,93.67
2023-05-19T15:57:28.997Z,92.64
2023-05-19T15:59:55.787Z,95.75
2023-05-19T16:02:22.789Z,96.01
2023-05-19T16:04:49.581Z,94.78
2023-05-19T16:07:16.351Z,96.51
2023-05-19T16:09:44.832Z,98.25
2023-05-19T16:12:12.001Z,97.71
2023-05-19T16:14:39.354Z,94.41
2023-05-19T16:17:06.759Z,96.75
2023-05-19T16:19:33.880Z,96.89
2023-05-19T16:22:01.459Z,94.00
2023-05-19T16:24:29.270Z,96.19
2023-05-19T16:26:57.692Z,96.67
2023-05-19T16:29:25.348Z,95.98
2023-05-19T16:31:52.232Z,97.19
2023-05-19T16:34:18.999Z,97.97
2023-05-19T16:36:45.890Z,96.66
2023-05-19T16:39:12.920Z,95.94
2023-05-19T16:41:39.755Z,94.89
2023-05-19T16:44:08.174Z,95.20
2023-05-19T16:46:35.091Z,92.15
2023-05-19T16:49:02.309Z,94.06
2023-05-19T16:51:29.362Z,94.48
2023-05-19T16:53:57.008Z,92.50
2023-05-19T16:56:24.144Z,91.04
2023-05-19T16:58:51.252Z,90.50
2023-05-19T17:01:19.701Z,90.73
2023-05-19T17:03:46.740Z,88.48
2023-05-19T17:06:13.508Z,88.34
2023-05-19T17:08:40.243Z,90.67
2023-05-19T17:11:07.050Z,89.78
2023-05-19T17:13:34.192Z,88.76
2023-05-19T17:16:00.992Z,87.41
2023-05-19T17:18:29.202Z,88.11
2023-05-19T17:20:56.331Z,88.33
2023-05-19T17:23:23.243Z,87.96
2023-05-19T17:25:54.504Z,88.14
2023-05-19T17:28:21.584Z,88.29
2023-05-19T17:30:48.649Z,90.70
2023-05-19T17:33:15.738Z,90.39
2023-05-19T17:35:44.668Z,90.86
2023-05-19T17:38:11.574Z,90.10
2023-05-19T17:40:40.022Z,90.78
2023-05-19T17:43:08.653Z,90.03
2023-05-19T17:45:35.506Z,90.29
2023-05-19T17:48:02.741Z,89.08
2023-05-19T17:50:29.579Z,89.92
2023-05-19T17:52:59.486Z,89.81
2023-05-19T17:55:27.570Z,91.25
2023-05-19T17:57:54.750Z,90.71
2023-05-19T18:00:22.661Z,91.90
2023-05-19T18:02:50.436Z,90.89
2023-05-19T18:05:18.048Z,88.66
2023-05-19T18:07:45.047Z,91.38
2023-05-19T18:10:15.431Z,90.95
2023-05-19T18:12:42.824Z,91.04
2023-05-19T18:15:11.975Z,89.46
2023-05-19T18:17:41.937Z,90.73
2023-05-19T18:20:09.615Z,89.15
2023-05-19T18:22:36.888Z,88.72
2023-05-19T18:25:04.778Z,88.77
2023-05-19T18:27:34.283Z,90.40
2023-05-19T18:30:01.672Z,89.73
2023-05-19T18:32:29.411Z,90.16
2023-05-19T18:34:57.136Z,88.96
2023-05-19T18:37:23.998Z,88.98
2023-05-19T18:39:50.872Z,86.53
2023-05-19T18:42:17.844Z,87.17
2023-05-19T18:44:46.296Z,88.66
2023-05-19T18:47:13.368Z,89.52
2023-05-19T18:49:41.161Z,90.27
2023-05-19T18:52:08.201Z,88.83
2023-05-19T18:54:35.054Z,88.29
2023-05-19T18:57:01.880Z,89.72
2023-05-19T18:59:28.881Z,91.08
2023-05-19T19:01:57.329Z,91.35
2023-05-19T19:04:24.337Z,90.60
2023-05-19T19:06:51.412Z,91.20
2023-05-19T19:09:18.475Z,91.12
2023-05-19T19:11:46.053Z,91.23
2023-05-19T19:14:13.250Z,92.23
2023-05-19T19:16:40.198Z,92.31
2023-05-19T19:19:08.739Z,91.97
2023-05-19T19:21:35.621Z,92.26
2023-05-19T19:24:02.559Z,91.74
2023-05-19T19:26:29.553Z,92.06
2023-05-19T19:28:56.694Z,92.06
2023-05-19T19:31:24.008Z,92.58
2023-05-19T19:33:50.797Z,91.91
2023-05-19T19:36:19.081Z,91.82
2023-05-19T19:38:45.869Z,92.26
2023-05-19T19:41:12.682Z,92.56
2023-05-19T19:43:40.326Z,92.90
2023-05-19T19:46:07.280Z,93.14
2023-05-19T19:48:34.410Z,93.27
2023-05-19T19:51:01.573Z,94.38
2023-05-19T19:53:30.140Z,94.17
2023-05-19T19:55:58.190Z,94.22
2023-05-19T19:58:25.770Z,95.42
2023-05-19T20:00:56.366Z,95.33
2023-05-19T20:03:24.384Z,95.37
2023-05-19T20:05:51.744Z,96.63
2023-05-19T20:08:18.581Z,97.11
2023-05-19T20:10:48.065Z,98.11
2023-05-19T20:13:15.382Z,98.73
2023-05-19T20:15:43.485Z,98.53
2023-05-19T20:18:11.124Z,98.77
2023-05-19T20:20:39.121Z,98.59
2023-05-19T20:23:06.224Z,98.66
2023-05-19T20:25:33.593Z,99.46
2023-05-19T20:28:02.962Z,99.80
2023-05-19T20:30:30.273Z,100.00
2023-05-19T20:32:58.222Z,100.00
2023-05-19T20:35:25.511Z,100.00
2023-05-19T20:37:53.241Z,100.00
2023-05-19T20:40:20.688Z,100.00
2023-05-19T20:42:48.039Z,100.00
2023-05-19T20:45:16.288Z,100.00
2023-05-19T20:47:44.044Z,100.00
2023-05-19T20:50:10.835Z,100.00
2023-05-19T20:52:38.473Z,100.00
2023-05-19T20:55:05.686Z,100.00
2023-05-19T20:57:32.833Z,100.00
2023-05-19T20:59:59.842Z,100.00
2023-05-19T21:02:28.347Z,100.00
2023-05-19T21:04:55.242Z,100.00
2023-05-19T21:07:22.091Z,100.00
2023-05-19T21:09:49.045Z,100.00
2023-05-19T21:12:16.657Z,100.00
2023-05-19T21:14:44.231Z,100.00
2023-05-19T21:17:12.606Z,100.00
2023-05-19T21:19:41.891Z,100.00
2023-05-19T21:22:08.784Z,100.00
2023-05-19T21:24:36.573Z,100.00
2023-05-19T21:27:04.177Z,100.00
2023-05-19T21:29:31.060Z,100.00
2023-05-19T21:31:59.054Z,100.00
2023-05-19T21:34:26.723Z,100.00
2023-05-19T21:36:55.929Z,100.00
2023-05-19T21:39:22.718Z,100.00
2023-05-19T21:41:50.165Z,100.00
2023-05-19T21:44:17.789Z,100.00
2023-05-19T21:46:45.446Z,100.00
2023-05-19T21:49:12.295Z,100.00
2023-05-19T21:51:39.479Z,100.00
2023-05-19T21:54:08.644Z,100.00
2023-05-19T21:56:36.086Z,100.00
2023-05-19T21:59:03.741Z,100.00
2023-05-19T22:03:57.121Z,100.00
2023-05-19T22:06:24.306Z,100.00
2023-05-19T22:08:51.150Z,100.00
2023-05-19T22:11:20.163Z,100.00
2023-05-19T22:13:47.141Z,100.00
2023-05-19T22:16:14.218Z,100.00
2023-05-19T22:18:41.023Z,100.00
2023-05-19T22:21:08.062Z,100.00
2023-05-19T22:23:35.519Z,100.00
2023-05-19T22:26:02.274Z,100.00
2023-05-19T22:28:31.430Z,100.00
2023-05-19T22:30:58.090Z,100.00
2023-05-19T22:33:24.727Z,100.00
2023-05-19T22:35:52.358Z,100.00
2023-05-19T22:38:19.989Z,100.00
2023-05-19T22:40:47.975Z,100.00
2023-05-19T22:43:16.083Z,100.00
2023-05-19T22:45:45.446Z,100.00
2023-05-19T22:48:12.812Z,100.00
2023-05-19T22:50:40.798Z,100.00
2023-05-19T22:53:08.375Z,100.00
2023-05-19T22:55:35.470Z,100.00
2023-05-19T22:58:03.051Z,100.00
2023-05-19T23:00:31.007Z,100.00
2023-05-19T23:03:00.648Z,100.00
2023-05-19T23:05:28.013Z,100.00
2023-05-19T23:07:55.344Z,100.00
2023-05-19T23:10:23.004Z,100.00
2023-05-19T23:12:50.257Z,100.00
2023-05-19T23:15:17.892Z,100.00
2023-05-19T23:17:46.193Z,100.00
2023-05-19T23:20:14.998Z,100.00
2023-05-19T23:22:43.318Z,100.00
2023-05-19T23:25:11.289Z,100.00
2023-05-19T23:27:38.984Z,100.00
2023-05-19T23:30:07.636Z,100.00
2023-05-19T23:32:35.250Z,100.00
2023-05-19T23:35:10.082Z,100.00
2023-05-19T23:37:39.860Z,100.00
2023-05-19T23:40:08.374Z,100.00
2023-05-19T23:42:37.503Z,100.00
2023-05-19T23:45:06.316Z,100.00
2023-05-19T23:47:33.952Z,100.00
2023-05-19T23:50:00.932Z,100.00
2023-05-19T23:52:28.097Z,100.00
2023-05-19T23:54:56.534Z,100.00
2023-05-19T23:57:23.340Z,100.00
2023-05-19T23:59:50.285Z,100.00
